Time;durP1;ratioP1;P1;durP2;ratioP2;P2;SDS_P1;SDS_P2;PMS_P1;PMS_P2;Temp;Humidity;BMP_temperature;BMP_pressure;BME280_temperature;BME280_humidity;BME280_pressure;Samples;Min_cycle;Max_cycle;Signal;HPM_P1;HPM_P2
2022/09/17 00:02:12;;;;;;;23.80;11.68;;;;;;;9.30;100.00;101218.97;5051937;28;20029;-59
2022/09/17 00:04:38;;;;;;;19.45;11.13;;;;;;;9.35;100.00;101229.16;5033894;28;20028;-59
2022/09/17 00:07:03;;;;;;;22.85;11.52;;;;;;;9.38;100.00;101224.97;5052209;28;20021;-58
2022/09/17 00:09:28;;;;;;;22.80;11.00;;;;;;;9.43;100.00;101233.22;5034218;28;20109;-59
2022/09/17 00:11:54;;;;;;;21.10;10.50;;;;;;;9.42;100.00;101237.09;5033688;28;20021;-60
2022/09/17 00:14:19;;;;;;;24.00;10.90;;;;;;;9.47;100.00;101243.38;5051402;28;20096;-59
2022/09/17 00:16:47;;;;;;;22.33;10.77;;;;;;;9.47;100.00;101235.09;5051587;28;20021;-58
2022/09/17 00:19:19;;;;;;;21.63;9.95;;;;;;;9.38;100.00;101227.75;5051441;28;20053;-59
2022/09/17 00:21:46;;;;;;;22.48;10.63;;;;;;;9.51;100.00;101241.72;5051751;28;20029;-58
2022/09/17 00:24:12;;;;;;;22.60;10.88;;;;;;;9.48;100.00;101244.22;5051829;28;20021;-59
2022/09/17 00:26:38;;;;;;;20.20;10.90;;;;;;;9.50;100.00;101245.59;5033347;28;20029;-59
2022/09/17 00:29:04;;;;;;;23.30;11.00;;;;;;;9.48;100.00;101247.00;5051712;28;20032;-60
2022/09/17 00:31:30;;;;;;;19.40;10.23;;;;;;;9.55;100.00;101243.88;5051823;28;20021;-59
2022/09/17 00:33:58;;;;;;;19.83;11.38;;;;;;;9.44;100.00;101224.66;5053273;28;20063;-59
2022/09/17 00:36:23;;;;;;;20.27;10.90;;;;;;;9.46;100.00;101247.25;5054852;28;20021;-58
2022/09/17 00:38:50;;;;;;;23.38;10.50;;;;;;;9.51;100.00;101252.75;5054699;28;20029;-58
2022/09/17 00:41:16;;;;;;;18.20;10.05;;;;;;;9.53;100.00;101249.69;5055364;28;20087;-58
2022/09/17 00:43:51;;;;;;;20.30;10.38;;;;;;;9.55;100.00;101255.75;5055419;28;20412;-59
2022/09/17 00:46:25;;;;;;;22.05;10.10;;;;;;;9.65;100.00;101249.31;5054723;28;20025;-59
2022/09/17 00:48:53;;;;;;;19.90;9.80;;;;;;;9.56;100.00;101232.56;5054802;28;20107;-58
2022/09/17 00:51:25;;;;;;;17.35;9.70;;;;;;;9.70;100.00;101256.72;5054956;28;20025;-58
2022/09/17 00:53:50;;;;;;;17.05;9.35;;;;;;;9.72;100.00;101257.28;5054897;28;20391;-58
2022/09/17 00:56:26;;;;;;;19.35;10.23;;;;;;;9.70;100.00;101260.34;5055036;28;20029;-59
2022/09/17 00:58:54;;;;;;;20.17;10.52;;;;;;;9.71;100.00;101261.97;5054845;28;20078;-59
2022/09/17 01:01:19;;;;;;;21.65;10.77;;;;;;;9.80;99.39;101265.78;5054393;28;20418;-59
2022/09/17 01:03:45;;;;;;;20.55;10.85;;;;;;;9.83;99.10;101256.88;5054449;28;20112;-59
2022/09/17 01:06:48;;;;;;;19.80;10.55;;;;;;;9.79;99.54;101268.81;5054537;28;20112;-59
2022/09/17 01:09:29;;;;;;;20.20;10.27;;;;;;;9.83;98.79;101247.78;5054827;28;20507;-59
2022/09/17 01:12:16;;;;;;;20.83;10.32;;;;;;;9.68;99.03;101260.59;5054702;28;20148;-59
2022/09/17 01:14:55;;;;;;;19.45;9.75;;;;;;;9.68;99.85;101260.59;5054941;28;20068;-59
2022/09/17 01:17:26;;;;;;;17.38;10.50;;;;;;;9.75;99.02;101271.31;5054691;28;20054;-59
2022/09/17 01:20:50;;;;;;;17.73;10.27;;;;;;;9.74;99.48;101261.38;5054167;28;20049;-60
2022/09/17 01:23:42;;;;;;;21.77;10.80;;;;;;;9.65;99.70;101269.50;4957034;28;20058;-59
2022/09/17 01:26:45;;;;;;;17.77;9.45;;;;;;;9.71;99.29;101275.81;4972795;28;20499;-59
2022/09/17 01:29:51;;;;;;;19.33;10.07;;;;;;;9.72;99.28;101282.13;5054164;28;20041;-59
2022/09/17 01:32:27;;;;;;;17.75;9.63;;;;;;;9.66;98.99;101278.59;5026107;28;20094;-59
2022/09/17 01:35:05;;;;;;;23.17;11.48;;;;;;;9.71;99.06;101274.97;5054100;28;20036;-59
2022/09/17 01:37:33;;;;;;;18.50;9.88;;;;;;;9.62;99.04;101283.06;5054222;28;20029;-59
2022/09/17 01:40:13;;;;;;;17.27;9.85;;;;;;;9.60;98.82;101283.31;5053701;28;20029;-59
2022/09/17 01:42:48;;;;;;;24.63;10.60;;;;;;;9.61;98.67;101281.41;5053483;28;20111;-59
2022/09/17 01:45:34;;;;;;;21.25;10.18;;;;;;;9.60;99.31;101282.53;5053450;28;20036;-59
2022/09/17 01:48:10;;;;;;;19.10;10.65;;;;;;;9.47;99.63;101273.78;5053512;28;20341;-59
2022/09/17 01:50:43;;;;;;;22.60;11.40;;;;;;;9.57;99.12;101288.59;5053603;28;20107;-59
2022/09/17 01:53:10;;;;;;;24.07;11.27;;;;;;;9.51;99.92;101293.34;5053503;28;20029;-59
2022/09/17 01:55:39;;;;;;;20.25;10.82;;;;;;;9.49;100.00;101292.84;5053307;28;20270;-59
2022/09/17 01:58:13;;;;;;;18.52;10.57;;;;;;;9.43;100.00;101274.63;5053680;28;20492;-59
2022/09/17 02:00:44;;;;;;;20.55;10.45;;;;;;;9.44;99.76;101268.00;5053776;28;20032;-59
2022/09/17 02:03:29;;;;;;;20.60;9.90;;;;;;;9.49;99.68;101287.31;5054086;28;20043;-59
2022/09/17 02:06:01;;;;;;;22.13;10.77;;;;;;;9.45;99.82;101280.69;5053844;28;20079;-58
2022/09/17 02:08:35;;;;;;;21.08;10.70;;;;;;;9.51;100.00;101282.28;5053245;28;20033;-60
2022/09/17 02:11:09;;;;;;;19.90;10.95;;;;;;;9.43;100.00;101291.19;5053105;28;20028;-58
2022/09/17 02:13:46;;;;;;;20.30;10.95;;;;;;;9.28;100.00;101275.56;5052539;28;20124;-59
2022/09/17 02:16:18;;;;;;;22.25;10.60;;;;;;;9.31;100.00;101281.34;5053036;28;20396;-60
2022/09/17 02:19:15;;;;;;;20.63;10.70;;;;;;;9.40;100.00;101292.59;5052598;28;20118;-59
2022/09/17 02:22:11;;;;;;;20.30;10.93;;;;;;;9.45;100.00;101300.03;5053027;28;20167;-59
2022/09/17 02:24:51;;;;;;;19.35;10.30;;;;;;;9.46;100.00;101294.22;5053221;28;20032;-58
2022/09/17 02:27:30;;;;;;;20.90;10.48;;;;;;;9.30;100.00;101282.47;5052773;28;20158;-59
2022/09/17 02:29:55;;;;;;;21.58;10.65;;;;;;;9.35;100.00;101287.13;5035086;28;20029;-58
2022/09/17 02:32:20;;;;;;;20.52;10.90;;;;;;;9.32;100.00;101291.28;5052747;28;20025;-60
2022/09/17 02:34:46;;;;;;;21.55;11.50;;;;;;;9.31;100.00;101286.84;5052487;28;20032;-59
2022/09/17 02:37:12;;;;;;;20.70;10.13;;;;;;;9.29;100.00;101293.78;5053007;28;20116;-59
2022/09/17 02:39:37;;;;;;;22.25;10.25;;;;;;;9.26;100.00;101305.41;5052697;28;20463;-58
2022/09/17 02:42:26;;;;;;;23.10;10.30;;;;;;;9.23;100.00;101306.78;5052629;28;20353;-58
2022/09/17 02:45:01;;;;;;;22.42;10.23;;;;;;;9.21;100.00;101309.84;5052581;28;20613;-59
2022/09/17 02:47:43;;;;;;;23.88;10.93;;;;;;;9.11;100.00;101298.88;5052559;28;20463;-59
2022/09/17 02:50:29;;;;;;;20.05;10.80;;;;;;;9.19;100.00;101306.53;5052669;28;20587;-59
2022/09/17 02:53:06;;;;;;;21.63;10.65;;;;;;;9.25;100.00;101303.78;5052472;28;20033;-59
2022/09/17 02:55:51;;;;;;;22.48;10.82;;;;;;;9.29;100.00;101308.44;5052091;28;20033;-59
2022/09/17 02:58:31;;;;;;;20.55;11.30;;;;;;;9.38;100.00;101305.06;5052566;28;20055;-59
2022/09/17 03:01:02;;;;;;;20.52;10.68;;;;;;;9.31;100.00;101306.19;5052149;28;20028;-59
2022/09/17 03:03:36;;;;;;;20.08;10.35;;;;;;;9.27;100.00;101298.75;5052313;28;20029;-59
2022/09/17 03:06:01;;;;;;;;;;;;;;;9.47;100.00;101295.06;5053106;28;20028;-59
2022/09/17 03:08:31;;;;;;;21.45;9.88;;;;;;;9.43;100.00;101296.72;5034141;28;19919;-59
2022/09/17 03:10:56;;;;;;;18.67;10.60;;;;;;;9.42;100.00;101298.69;5051893;28;20053;-58
2022/09/17 03:13:22;;;;;;;21.00;9.80;;;;;;;9.41;100.00;101304.47;5051931;28;20035;-59
2022/09/17 03:15:47;;;;;;;18.40;10.25;;;;;;;9.40;100.00;101298.13;5052030;28;20033;-59
2022/09/17 03:18:12;;;;;;;22.10;10.45;;;;;;;9.37;100.00;101306.97;5051906;28;20045;-59
2022/09/17 03:20:38;;;;;;;18.02;10.48;;;;;;;9.38;100.00;101305.06;5052176;28;20108;-59
2022/09/17 03:23:03;;;;;;;19.63;9.90;;;;;;;9.36;100.00;101311.69;5052424;28;20402;-59
2022/09/17 03:25:28;;;;;;;22.60;10.98;;;;;;;9.48;100.00;101310.50;5052221;28;20021;-59
2022/09/17 03:27:54;;;;;;;19.13;10.88;;;;;;;9.38;100.00;101303.09;5052022;28;20098;-59
2022/09/17 03:30:19;;;;;;;21.38;10.40;;;;;;;9.59;99.31;101312.06;5052376;28;20017;-59
2022/09/17 03:32:45;;;;;;;19.90;10.30;;;;;;;9.51;100.00;101305.22;5051923;28;20071;-59
2022/09/17 03:35:10;;;;;;;19.40;10.02;;;;;;;9.52;100.00;101312.41;5052082;28;20107;-59
2022/09/17 03:37:35;;;;;;;20.27;9.95;;;;;;;9.54;99.66;101298.31;5034050;28;20102;-59
2022/09/17 03:40:01;;;;;;;18.30;10.02;;;;;;;9.48;99.46;101291.19;5052002;28;20400;-59
2022/09/17 03:42:27;;;;;;;18.55;9.95;;;;;;;9.52;99.14;101293.06;5052188;28;20484;-59
2022/09/17 03:44:53;;;;;;;20.67;10.80;;;;;;;9.46;97.96;101294.22;5052102;28;20449;-59
2022/09/17 03:47:18;;;;;;;16.77;9.77;;;;;;;9.57;97.23;101286.69;5051598;28;20036;-59
2022/09/17 03:49:43;;;;;;;21.73;10.70;;;;;;;9.49;97.83;101284.56;5051807;28;20075;-59
2022/09/17 03:52:08;;;;;;;16.02;10.00;;;;;;;9.56;97.65;101292.47;5033776;28;20036;-59
2022/09/17 03:54:34;;;;;;;17.52;9.50;;;;;;;9.55;97.93;101308.25;5051675;28;20559;-59
2022/09/17 03:56:59;;;;;;;19.27;10.70;;;;;;;9.46;98.92;101312.72;5052062;28;20025;-59
2022/09/17 03:59:25;;;;;;;22.75;10.70;;;;;;;9.48;99.43;101316.84;5051627;28;20032;-60
2022/09/17 04:01:50;;;;;;;18.85;9.98;;;;;;;9.56;98.53;101323.72;5051907;28;20493;-59
2022/09/17 04:04:15;;;;;;;21.17;11.00;;;;;;;9.48;99.15;101329.84;5051888;28;20025;-59
2022/09/17 04:06:40;;;;;;;23.90;10.82;;;;;;;9.39;99.45;101315.81;5052372;28;20376;-59
2022/09/17 04:09:06;;;;;;;19.38;10.32;;;;;;;9.38;100.00;101327.97;5054708;28;20590;-59
2022/09/17 04:11:31;;;;;;;19.17;10.07;;;;;;;9.37;99.84;101329.06;5055857;28;20128;-59
2022/09/17 04:13:56;;;;;;;19.42;11.00;;;;;;;9.32;100.00;101327.16;5055827;28;20025;-59
2022/09/17 04:16:22;;;;;;;19.40;10.77;;;;;;;9.36;100.00;101331.03;5056184;28;20017;-58
2022/09/17 04:18:47;;;;;;;19.90;10.95;;;;;;;9.34;100.00;101330.47;5056149;28;20053;-59
2022/09/17 04:21:13;;;;;;;19.00;9.68;;;;;;;9.33;100.00;101328.81;5055610;28;20080;-59
2022/09/17 04:23:38;;;;;;;19.73;10.32;;;;;;;9.31;100.00;101330.22;5055513;28;20021;-58
2022/09/17 04:26:03;;;;;;;21.20;10.95;;;;;;;9.32;100.00;101329.13;5055336;28;20025;-59
2022/09/17 04:28:28;;;;;;;19.50;11.07;;;;;;;9.36;100.00;101332.94;5055685;28;20336;-59
2022/09/17 04:30:54;;;;;;;21.20;11.38;;;;;;;9.26;100.00;101322.78;5055551;28;20449;-59
2022/09/17 04:33:19;;;;;;;20.55;11.05;;;;;;;9.26;100.00;101333.03;5055368;28;20112;-59
2022/09/17 04:35:45;;;;;;;23.20;11.43;;;;;;;9.27;100.00;101334.66;5055082;28;20036;-58
2022/09/17 04:38:12;;;;;;;20.23;10.88;;;;;;;9.23;100.00;101330.81;5055048;28;20060;-58
2022/09/17 04:40:40;;;;;;;19.13;11.27;;;;;;;9.22;100.00;101332.75;5037309;28;20064;-59
2022/09/17 04:43:05;;;;;;;21.77;10.50;;;;;;;9.19;100.00;101328.63;5036701;28;20487;-58
2022/09/17 04:45:32;;;;;;;20.33;11.27;;;;;;;9.13;100.00;101338.06;5055178;28;20037;-60
2022/09/17 04:47:57;;;;;;;19.38;10.48;;;;;;;9.07;100.00;101330.91;5055234;28;20029;-60
2022/09/17 04:50:22;;;;;;;21.92;11.40;;;;;;;9.06;100.00;101332.03;5037482;28;20036;-60
2022/09/17 04:52:48;;;;;;;23.67;11.52;;;;;;;8.98;100.00;101329.84;5055245;28;20024;-60
2022/09/17 04:55:14;;;;;;;21.70;11.10;;;;;;;8.97;100.00;101336.50;5054902;28;20570;-59
2022/09/17 04:57:46;;;;;;;21.10;11.10;;;;;;;8.95;100.00;101328.47;5036937;28;20033;-60
2022/09/17 05:00:12;;;;;;;20.98;10.60;;;;;;;8.89;100.00;101335.94;5055272;28;20106;-59
2022/09/17 05:02:37;;;;;;;19.60;10.70;;;;;;;8.88;100.00;101339.00;5053781;28;20083;-58
2022/09/17 05:05:03;;;;;;;21.98;11.10;;;;;;;8.83;100.00;101334.34;5054917;28;20037;-58
2022/09/17 05:07:28;;;;;;;22.30;10.60;;;;;;;8.78;100.00;101337.13;5054704;28;20473;-59
2022/09/17 05:09:53;;;;;;;21.75;11.40;;;;;;;8.77;100.00;101338.22;5054745;28;20103;-59
2022/09/17 05:12:19;;;;;;;22.60;11.10;;;;;;;8.76;100.00;101344.00;5054519;28;20387;-60
2022/09/17 05:14:44;;;;;;;20.80;11.48;;;;;;;8.73;100.00;101348.16;5054023;28;20035;-59
2022/09/17 05:17:09;;;;;;;18.00;11.00;;;;;;;8.70;100.00;101351.47;5054556;28;20401;-59
2022/09/17 05:19:35;;;;;;;19.00;11.18;;;;;;;8.62;100.00;101349.28;5054404;28;20095;-59
2022/09/17 05:22:00;;;;;;;20.67;11.75;;;;;;;8.54;100.00;101348.78;5054467;28;20047;-59
2022/09/17 05:24:26;;;;;;;20.75;10.80;;;;;;;8.53;100.00;101349.06;5054164;28;20027;-59
2022/09/17 05:26:51;;;;;;;21.45;11.15;;;;;;;8.52;100.00;101352.91;5054666;28;20367;-60
2022/09/17 05:29:16;;;;;;;18.88;10.77;;;;;;;8.47;100.00;101356.53;5054244;28;20060;-59
2022/09/17 05:31:42;;;;;;;21.25;10.30;;;;;;;8.47;100.00;101356.53;5036090;28;20417;-59
2022/09/17 05:34:07;;;;;;;22.75;10.77;;;;;;;8.49;100.00;101362.59;5054328;28;20159;-60
2022/09/17 05:36:33;;;;;;;21.70;10.98;;;;;;;8.48;100.00;101366.44;5054163;28;20108;-59
2022/09/17 05:38:58;;;;;;;20.77;10.93;;;;;;;8.51;100.00;101362.28;5054353;28;20469;-59
2022/09/17 05:41:24;;;;;;;22.08;10.80;;;;;;;8.48;100.00;101360.09;5054558;28;20087;-59
2022/09/17 05:43:49;;;;;;;21.30;10.50;;;;;;;8.50;100.00;101360.63;5036338;28;20353;-59
2022/09/17 05:46:15;;;;;;;18.33;10.60;;;;;;;8.54;100.00;101372.78;5054365;28;20024;-58
2022/09/17 05:48:40;;;;;;;20.88;10.25;;;;;;;8.53;100.00;101365.59;5054072;28;20024;-58
2022/09/17 05:51:05;;;;;;;23.50;10.20;;;;;;;8.55;100.00;101364.22;5054037;28;20112;-59
2022/09/17 05:53:31;;;;;;;22.05;9.75;;;;;;;8.58;100.00;101365.59;5053520;28;20171;-58
2022/09/17 05:55:57;;;;;;;21.45;10.05;;;;;;;8.61;100.00;101373.31;5053953;28;20441;-58
2022/09/17 05:58:22;;;;;;;21.45;10.45;;;;;;;8.67;100.00;101374.94;5053863;28;20036;-59
2022/09/17 06:00:48;;;;;;;22.77;9.50;;;;;;;8.77;100.00;101382.38;5053743;28;20029;-58
2022/09/17 06:03:15;;;;;;;23.63;10.35;;;;;;;8.82;100.00;101390.63;5053490;28;20040;-58
2022/09/17 06:05:41;;;;;;;22.90;10.57;;;;;;;8.89;100.00;101384.81;5053388;28;20436;-59
2022/09/17 06:08:07;;;;;;;18.85;9.98;;;;;;;8.97;100.00;101389.75;5053097;28;20021;-59
2022/09/17 06:10:36;;;;;;;18.23;9.85;;;;;;;8.96;100.00;101388.09;5053412;28;20031;-58
2022/09/17 06:13:01;;;;;;;20.25;10.18;;;;;;;9.12;100.00;101397.13;5053447;28;20017;-59
2022/09/17 06:15:27;;;;;;;17.95;9.50;;;;;;;9.22;100.00;101390.72;5053166;28;20032;-59
2022/09/17 06:17:52;;;;;;;20.60;10.20;;;;;;;9.22;100.00;101387.97;5053402;28;20169;-59
2022/09/17 06:20:18;;;;;;;18.20;8.93;;;;;;;9.32;100.00;101396.19;5053785;28;20438;-59
2022/09/17 06:22:44;;;;;;;19.15;9.10;;;;;;;9.34;100.00;101401.44;5053950;28;20028;-59
2022/09/17 06:25:09;;;;;;;20.02;9.60;;;;;;;9.37;100.00;101398.09;5053433;28;20490;-58
2022/09/17 06:27:35;;;;;;;16.20;8.50;;;;;;;9.45;100.00;101400.25;5035183;28;20024;-59
2022/09/17 06:30:01;;;;;;;19.30;9.02;;;;;;;9.47;98.30;101400.81;5053243;28;20365;-58
2022/09/17 06:32:27;;;;;;;20.27;8.95;;;;;;;9.52;97.97;101389.75;5053009;28;20059;-58
2022/09/17 06:34:54;;;;;;;20.88;9.48;;;;;;;9.47;96.15;101375.94;5053216;28;20040;-59
2022/09/17 06:37:26;;;;;;;18.15;8.68;;;;;;;9.59;95.55;101388.59;5053376;28;20041;-59
2022/09/17 06:39:53;;;;;;;18.75;8.02;;;;;;;9.66;93.29;101389.09;5052974;28;20033;-59
2022/09/17 06:42:18;;;;;;;16.27;8.60;;;;;;;9.73;94.38;101395.13;5052764;28;20035;-60
2022/09/17 06:44:43;;;;;;;17.23;8.45;;;;;;;9.82;91.70;101384.28;5053192;28;20025;-59
2022/09/17 06:47:09;;;;;;;17.05;8.85;;;;;;;9.89;92.61;101386.72;5052960;28;20020;-60
2022/09/17 06:49:34;;;;;;;17.40;8.27;;;;;;;9.96;90.42;101392.75;5053178;28;20076;-60
2022/09/17 06:52:00;;;;;;;13.40;7.82;;;;;;;10.03;89.87;101390.47;5052954;28;20025;-60
2022/09/17 06:54:25;;;;;;;16.30;8.63;;;;;;;10.02;90.42;101396.31;5052521;28;20083;-60
2022/09/17 06:56:51;;;;;;;18.77;8.90;;;;;;;9.97;91.89;101395.22;5052616;28;20032;-60
2022/09/17 06:59:17;;;;;;;16.02;8.55;;;;;;;9.95;92.45;101380.03;5052544;28;20443;-60
2022/09/17 07:01:42;;;;;;;17.52;8.60;;;;;;;10.02;92.01;101397.13;5052715;28;20441;-60
2022/09/17 07:04:08;;;;;;;14.57;8.30;;;;;;;10.06;89.97;101391.84;5052103;28;20064;-60
2022/09/17 07:06:33;;;;;;;15.23;8.60;;;;;;;10.08;91.75;101398.75;5036588;28;20116;-60
2022/09/17 07:08:59;;;;;;;12.23;8.00;;;;;;;10.12;89.29;101390.69;5032701;28;20025;-60
2022/09/17 07:11:24;;;;;;;17.95;9.00;;;;;;;10.07;90.34;101397.09;5032518;28;20092;-60
2022/09/17 07:13:49;;;;;;;12.88;8.50;;;;;;;10.11;89.70;101405.63;5032375;28;20053;-60
2022/09/17 07:16:15;;;;;;;15.75;8.13;;;;;;;10.13;90.10;101400.63;5032366;28;20392;-61
2022/09/17 07:18:40;;;;;;;14.95;8.15;;;;;;;10.20;90.00;101392.00;5042635;28;20127;-60
2022/09/17 07:21:06;;;;;;;14.75;8.25;;;;;;;10.12;89.35;101407.28;5051940;28;20025;-58
2022/09/17 07:23:34;;;;;;;13.48;8.32;;;;;;;10.11;90.70;101400.91;5052182;28;20029;-59
2022/09/17 07:26:11;;;;;;;15.82;8.80;;;;;;;10.17;90.11;101410.00;5052520;28;20103;-59
2022/09/17 07:28:38;;;;;;;13.38;8.30;;;;;;;10.16;88.88;101402.81;5052651;28;20037;-59
2022/09/17 07:31:04;;;;;;;16.40;8.57;;;;;;;10.24;90.62;101396.69;5052487;28;20052;-59
2022/09/17 07:33:30;;;;;;;11.88;7.80;;;;;;;10.28;89.59;101397.72;5052430;28;20032;-59
2022/09/17 07:35:58;;;;;;;13.10;8.38;;;;;;;10.35;88.41;101402.09;5051997;28;20033;-59
2022/09/17 07:38:24;;;;;;;12.20;8.02;;;;;;;10.45;88.21;101404.78;5052430;28;20464;-59
2022/09/17 07:41:01;;;;;;;18.10;8.40;;;;;;;10.56;88.53;101405.53;5052173;28;20471;-59
2022/09/17 07:43:29;;;;;;;14.32;8.13;;;;;;;10.64;87.28;101410.41;5052232;28;20033;-59
2022/09/17 07:45:56;;;;;;;13.10;8.10;;;;;;;10.74;86.70;101413.09;5051796;28;20017;-58
2022/09/17 07:48:23;;;;;;;14.05;8.10;;;;;;;10.77;87.05;101412.47;5051846;28;20032;-58
2022/09/17 07:50:48;;;;;;;17.13;8.30;;;;;;;10.83;87.35;101401.38;5051483;28;20036;-58
2022/09/17 07:53:14;;;;;;;14.15;8.27;;;;;;;10.90;87.30;101410.13;5051718;28;20444;-58
2022/09/17 07:55:39;;;;;;;13.23;7.57;;;;;;;10.94;85.57;101402.91;5052122;28;20036;-59
2022/09/17 07:58:05;;;;;;;13.50;7.82;;;;;;;10.93;85.58;101398.47;5051944;28;20472;-58
2022/09/17 08:00:30;;;;;;;17.15;8.35;;;;;;;10.95;86.09;101396.25;5051831;28;20025;-58
2022/09/17 08:02:56;;;;;;;17.13;8.30;;;;;;;11.10;85.74;101397.97;5033653;28;20475;-58
2022/09/17 08:05:23;;;;;;;15.52;8.25;;;;;;;11.25;84.30;101399.72;5051181;28;20033;-58
2022/09/17 08:07:50;;;;;;;14.13;8.40;;;;;;;11.44;83.83;101407.22;5052157;28;20036;-58
2022/09/17 08:10:15;;;;;;;16.73;8.60;;;;;;;11.42;83.24;101415.03;5051892;28;20060;-58
2022/09/17 08:12:41;;;;;;;14.25;8.18;;;;;;;11.41;82.66;101425.28;5052093;28;20056;-58
2022/09/17 08:15:06;;;;;;;16.92;8.50;;;;;;;11.34;83.02;101424.84;5052280;28;20393;-59
2022/09/17 08:17:31;;;;;;;17.45;8.50;;;;;;;11.27;84.68;101419.66;5051418;28;20033;-59
2022/09/17 08:19:57;;;;;;;13.50;8.00;;;;;;;11.32;84.73;101411.28;5051837;28;20071;-59
2022/09/17 08:22:22;;;;;;;16.05;8.10;;;;;;;11.22;86.38;101422.50;5051592;28;20033;-59
2022/09/17 08:24:48;;;;;;;13.52;8.30;;;;;;;11.20;86.45;101406.16;5051818;28;20039;-59
2022/09/17 08:27:14;;;;;;;14.55;7.85;;;;;;;11.25;86.49;101408.03;5043671;28;20108;-59
2022/09/17 08:29:39;;;;;;;15.90;8.20;;;;;;;11.35;87.33;101415.41;5040793;28;20082;-59
2022/09/17 08:32:04;;;;;;;14.77;8.30;;;;;;;11.47;86.34;101410.25;5049942;28;20032;-59
2022/09/17 08:34:29;;;;;;;14.68;8.15;;;;;;;11.52;85.61;101412.13;5049886;28;20031;-59
2022/09/17 08:36:55;;;;;;;16.38;7.95;;;;;;;11.60;85.01;101419.78;5045336;28;20064;-59
2022/09/17 08:39:20;;;;;;;13.60;7.53;;;;;;;11.71;83.71;101412.13;5030039;28;20033;-59
2022/09/17 08:42:13;;;;;;;16.65;7.97;;;;;;;11.83;84.81;101408.88;5029638;28;20132;-59
2022/09/17 08:44:42;;;;;;;13.02;7.70;;;;;;;11.75;83.92;101381.84;5050866;28;20033;-59
2022/09/17 08:47:17;;;;;;;13.88;7.60;;;;;;;12.04;83.40;101405.81;5032633;28;20380;-59
2022/09/17 08:49:55;;;;;;;15.02;7.55;;;;;;;12.24;82.12;101404.66;5049886;28;20552;-59
2022/09/17 08:52:58;;;;;;;16.02;7.70;;;;;;;12.39;81.19;101404.41;5050007;28;20025;-59
2022/09/17 08:55:33;;;;;;;15.52;7.80;;;;;;;12.57;79.47;101399.88;5052906;28;20083;-59
2022/09/17 08:58:26;;;;;;;13.30;8.00;;;;;;;12.79;79.73;101406.72;5052270;28;20025;-59
2022/09/17 09:01:03;;;;;;;14.05;7.60;;;;;;;12.88;76.67;101402.09;5053283;28;20029;-58
2022/09/17 09:03:29;;;;;;;13.27;7.47;;;;;;;13.03;74.32;101414.84;5053001;28;20037;-59
2022/09/17 09:05:55;;;;;;;13.02;7.70;;;;;;;13.08;75.00;101400.84;5053460;28;20029;-58
2022/09/17 09:08:42;;;;;;;14.30;8.43;;;;;;;13.17;73.56;101414.03;5052997;28;20056;-58
2022/09/17 09:11:16;;;;;;;12.77;7.65;;;;;;;13.21;72.20;101417.81;5052969;28;20741;-58
2022/09/17 09:14:20;;;;;;;16.77;8.10;;;;;;;13.25;74.34;101411.31;5052144;28;20042;-59
2022/09/17 09:16:48;;;;;;;13.07;8.15;;;;;;;13.16;71.28;101417.94;5039146;28;20117;-59
2022/09/17 09:19:18;;;;;;;15.18;8.27;;;;;;;13.04;73.09;101408.16;5052738;28;20825;-60
2022/09/17 09:22:17;;;;;;;16.67;7.88;;;;;;;13.17;72.93;101417.59;5053468;28;20240;-60
2022/09/17 09:25:09;;;;;;;12.70;8.48;;;;;;;13.05;72.98;101417.28;5053015;28;20074;-59
2022/09/17 09:28:00;;;;;;;12.23;7.75;;;;;;;13.15;72.57;101421.84;5052747;28;20033;-59
2022/09/17 09:30:36;;;;;;;15.13;7.57;;;;;;;13.36;72.59;101425.00;5052026;28;20163;-59
2022/09/17 09:33:17;;;;;;;13.60;7.13;;;;;;;13.51;71.11;101409.97;5034525;28;20029;-59
2022/09/17 09:35:43;;;;;;;12.23;7.35;;;;;;;13.67;69.86;101422.38;5052779;28;20421;-60
2022/09/17 09:38:42;;;;;;;10.68;7.40;;;;;;;13.76;68.76;101436.38;5052919;28;20048;-59
2022/09/17 09:41:26;;;;;;;12.40;7.40;;;;;;;13.65;68.34;101434.97;5052949;28;20029;-58
2022/09/17 09:44:03;;;;;;;10.88;7.10;;;;;;;13.41;68.30;101436.84;5052460;28;20128;-59
2022/09/17 09:46:44;;;;;;;12.15;7.75;;;;;;;13.27;68.56;101470.19;5052395;28;20055;-59
2022/09/17 09:49:28;;;;;;;13.20;7.43;;;;;;;13.13;69.17;101438.78;5052325;28;20036;-59
2022/09/17 09:52:19;;;;;;;12.55;7.50;;;;;;;13.07;68.33;101437.25;5052002;28;20032;-59
2022/09/17 09:55:20;;;;;;;11.55;6.97;;;;;;;13.10;68.36;101450.53;5023176;28;20041;-59
2022/09/17 09:57:48;;;;;;;12.43;7.50;;;;;;;13.07;68.12;101427.00;5051805;28;20025;-59
2022/09/17 10:00:39;;;;;;;12.57;7.55;;;;;;;13.31;68.93;101428.72;5052490;28;20025;-59
2022/09/17 10:03:30;;;;;;;14.93;7.72;;;;;;;13.71;68.71;101442.03;5052649;28;20036;-59
2022/09/17 10:05:59;;;;;;;10.82;7.60;;;;;;;13.72;67.38;101427.00;5051531;28;20078;-59
2022/09/17 10:08:26;;;;;;;12.38;7.75;;;;;;;13.77;66.90;101429.69;5052370;28;20068;-59
2022/09/17 10:11:01;;;;;;;12.75;7.60;;;;;;;13.92;67.46;101431.28;5052288;28;20112;-59
2022/09/17 10:13:29;;;;;;;17.42;8.02;;;;;;;14.01;65.93;101431.34;5052510;28;20021;-58
2022/09/17 10:15:54;;;;;;;12.43;7.82;;;;;;;14.15;65.82;101440.47;5051947;28;20051;-59
2022/09/17 10:18:22;;;;;;;11.75;7.50;;;;;;;14.16;65.37;101430.97;5051660;28;20053;-59
2022/09/17 10:20:52;;;;;;;12.55;7.50;;;;;;;14.14;67.76;101432.41;5051537;28;20029;-59
2022/09/17 10:23:20;;;;;;;12.40;7.50;;;;;;;14.10;66.28;101423.88;5051673;28;20033;-58
2022/09/17 10:25:46;;;;;;;12.77;7.60;;;;;;;13.89;65.09;101429.94;5052153;28;20017;-58
2022/09/17 10:28:32;;;;;;;10.63;7.20;;;;;;;13.74;66.06;101424.75;5052263;28;20032;-58
2022/09/17 10:31:09;;;;;;;13.65;7.80;;;;;;;13.74;67.84;101424.75;5052070;28;20063;-58
2022/09/17 10:33:38;;;;;;;13.35;7.25;;;;;;;13.61;69.13;101426.44;5051988;28;20025;-58
2022/09/17 10:36:05;;;;;;;13.57;7.70;;;;;;;13.48;69.33;101419.75;5051904;28;20051;-57
2022/09/17 10:38:35;;;;;;;13.45;7.47;;;;;;;13.59;71.23;101422.31;5051940;28;20029;-58
2022/09/17 10:41:23;;;;;;;14.98;7.72;;;;;;;13.64;69.26;101428.59;5051644;28;20029;-58
2022/09/17 10:43:50;;;;;;;11.65;7.80;;;;;;;13.55;69.12;101427.69;5033056;28;20376;-58
2022/09/17 10:46:32;;;;;;;11.35;6.75;;;;;;;13.59;68.41;101428.69;5051190;28;20025;-58
2022/09/17 10:49:10;;;;;;;13.57;7.40;;;;;;;13.46;67.68;101424.00;5051909;28;20021;-58
2022/09/17 10:51:36;;;;;;;14.82;7.43;;;;;;;13.47;67.96;101417.28;5051706;28;20032;-59
2022/09/17 10:54:40;;;;;;;14.52;7.63;;;;;;;13.47;68.24;101425.63;5051571;28;20043;-58
2022/09/17 10:57:09;;;;;;;12.18;7.20;;;;;;;13.48;68.81;101414.22;5033771;28;20390;-58
2022/09/17 10:59:49;;;;;;;12.77;6.82;;;;;;;13.60;68.32;101415.63;5050847;28;20032;-59
2022/09/17 11:02:32;;;;;;;10.30;6.68;;;;;;;13.80;68.14;101406.78;5051398;28;20029;-59
2022/09/17 11:05:01;;;;;;;14.88;7.00;;;;;;;13.92;67.10;101409.03;5051339;28;20064;-58
2022/09/17 11:07:46;;;;;;;14.25;7.38;;;;;;;14.22;66.75;101414.94;5051340;28;20029;-58
2022/09/17 11:10:27;;;;;;;12.52;7.20;;;;;;;14.38;63.51;101392.31;5033516;28;20483;-59
2022/09/17 11:13:11;;;;;;;11.30;7.68;;;;;;;14.38;64.50;101407.03;5050978;28;20062;-58
2022/09/17 11:15:53;;;;;;;12.50;7.88;;;;;;;14.45;64.85;101404.63;5051159;28;20033;-59
2022/09/17 11:19:13;;;;;;;12.98;7.30;;;;;;;14.50;64.72;101387.78;5050401;28;20084;-58
2022/09/17 11:22:08;;;;;;;12.68;7.50;;;;;;;14.55;65.58;101372.91;4950324;29;20035;-59
2022/09/17 11:24:36;;;;;;;11.88;6.80;;;;;;;14.64;64.42;101387.69;5050531;28;20396;-59
2022/09/17 11:27:17;;;;;;;13.45;7.78;;;;;;;14.64;63.26;101384.91;5051062;28;20060;-59
2022/09/17 11:29:52;;;;;;;12.63;7.30;;;;;;;14.50;63.60;101387.78;5050672;28;20037;-59
2022/09/17 11:32:38;;;;;;;13.10;7.55;;;;;;;14.39;65.10;101405.09;5050814;28;20028;-59
2022/09/17 11:35:14;;;;;;;13.57;6.93;;;;;;;14.19;63.90;101391.38;5051252;28;20033;-59